»·PEaware :: N3610E KAJO-KTOA

N3610E :: KAJO-KTOA

FLIGHT INFORMATION

Flight Status: Arrived
Operator: Privately registered:
United States
More flights under this callsign
Pilot: John C. (12173)
Aircraft: CESSNA 172 SKYHAWK
(C172)
More flights by this aircraft type
Origin: KAJO Corona Mun
United States
Destination: KTOA Zamperini
United States
More flights between these airports :: More routes between these airports
Route: PDZ PDZ270 V394 SLI
File this flight plan on PilotEdge
Remarks:
Altitude:
(Current/Filed)
3,000ft
Speed:
(Current/Filed)
100kts
Departed: 02-Jan-18 09:51 AM
Arrived: 02-Jan-18 10:29 AM
Distance/Time
Traveled:
38nm/0:38
Distance/Time
To Go:
Arrived

Flight Plot

Page will automatically refresh every two minutes.


Map Options




Map Legend


Flown Route
Filed Route
Departure Airport
Arrival Airport
Navaid (VOR, NDB)
Fix

Horizontal Profiles

Position Reports

Time Latitude Longitude Heading Altitude Ground
Speed
02-Jan-18 09:50 33.896743 -117.597528 90 534ft 0kts
02-Jan-18 09:51 33.896743 -117.597528 90 534ft 0kts
02-Jan-18 09:52 33.896743 -117.597528 90 534ft 0kts
02-Jan-18 09:53 33.897043 -117.597421 9 534ft 0kts
02-Jan-18 09:54 33.897043 -117.597421 9 534ft 0kts
02-Jan-18 09:55 33.897088 -117.597415 5 534ft 4kts
02-Jan-18 09:56 33.897638 -117.605395 256 521ft 0kts
02-Jan-18 09:57 33.897565 -117.607849 269 715ft 87kts
02-Jan-18 09:58 33.910729 -117.616342 66 1839ft 80kts
02-Jan-18 09:59 33.914664 -117.588534 83 2800ft 86kts
02-Jan-18 10:00 33.919055 -117.556778 77 3030ft 101kts
02-Jan-18 10:01 33.937018 -117.530942 42 2873ft 105kts
02-Jan-18 10:02 33.929047 -117.508650 198 3046ft 114kts
02-Jan-18 10:03 33.915774 -117.540318 291 3638ft 113kts
02-Jan-18 10:04 33.927433 -117.574837 282 4020ft 115kts
02-Jan-18 10:05 33.936409 -117.610002 297 4082ft 114kts
02-Jan-18 10:06 33.944662 -117.646168 282 4033ft 116kts
02-Jan-18 10:07 33.951548 -117.683618 284 4007ft 115kts
02-Jan-18 10:08 33.959565 -117.720690 287 3977ft 114kts
02-Jan-18 10:09 33.967026 -117.757750 288 3954ft 114kts
02-Jan-18 10:10 33.974357 -117.794772 284 3945ft 114kts
02-Jan-18 10:11 33.976992 -117.831745 235 3954ft 113kts
02-Jan-18 10:12 33.949048 -117.848780 206 3977ft 112kts
02-Jan-18 10:13 33.919226 -117.858789 183 3997ft 111kts
02-Jan-18 10:14 33.887748 -117.859029 182 3999ft 113kts
02-Jan-18 10:15 33.856292 -117.861309 183 3991ft 113kts
02-Jan-18 10:16 33.824979 -117.862809 175 3946ft 114kts
02-Jan-18 10:17 33.793967 -117.865693 180 3899ft 110kts
02-Jan-18 10:18 33.763230 -117.867356 183 3903ft 113kts
02-Jan-18 10:19 33.732225 -117.870017 182 3927ft 112kts
02-Jan-18 10:20 33.700976 -117.871730 189 3968ft 113kts
02-Jan-18 10:21 33.692398 -117.903690 274 3985ft 113kts
02-Jan-18 10:22 33.694029 -117.941325 271 3998ft 113kts
02-Jan-18 10:23 33.695000 -117.979089 274 4003ft 113kts
02-Jan-18 10:24 33.696271 -118.016620 270 3701ft 112kts
02-Jan-18 10:25 33.696651 -118.054044 273 3139ft 111kts
02-Jan-18 10:26 33.698348 -118.091140 270 2567ft 111kts
02-Jan-18 10:27 33.703353 -118.127259 272 2009ft 112kts
02-Jan-18 10:28 33.701867 -118.163803 268 1941ft 109kts
02-Jan-18 10:29 33.712011 -118.196932 301 1976ft 110kts
02-Jan-18 10:30 33.728706 -118.227007 310 2049ft 109kts
02-Jan-18 10:31 33.747662 -118.254923 309 2075ft 108kts
02-Jan-18 10:32 33.766509 -118.283291 306 1647ft 109kts
02-Jan-18 10:33 33.785091 -118.310923 306 947ft 103kts
02-Jan-18 10:34 33.801397 -118.335641 308 153ft 75kts
02-Jan-18 10:35 33.807585 -118.344972 305 88ft 12kts
02-Jan-18 10:36 33.807411 -118.346119 207 88ft 13kts
02-Jan-18 10:37 33.805710 -118.347230 205 95ft 0kts
02-Jan-18 10:38 33.805710 -118.347230 205 95ft 0kts
02-Jan-18 10:39 33.805710 -118.347230 205 95ft 0kts

Navigation Log

Ident Type
Flight plan parsing failed, navigation log unavailable